Time;durP1;ratioP1;P1;durP2;ratioP2;P2;SDS_P1;SDS_P2;PMS_P1;PMS_P2;Temp;Humidity;BMP_temperature;BMP_pressure;BME280_temperature;BME280_humidity;BME280_pressure;Samples;Min_cycle;Max_cycle;Signal;HPM_P1;HPM_P2
2022/02/17 00:00:23;;;;;;;14.77;2.42;;;;;;;-149.78;100.00;50432.31;5053878;28;20044;-62
2022/02/17 00:02:50;;;;;;;12.63;2.10;;;;;;;-149.78;100.00;50438.19;5055076;28;20041;-63
2022/02/17 00:05:17;;;;;;;9.10;1.45;;;;;;;-149.78;100.00;50408.84;5053785;28;20037;-62
2022/02/17 00:07:43;;;;;;;13.40;1.95;;;;;;;-149.78;100.00;50440.16;5053712;28;20029;-63
2022/02/17 00:10:09;;;;;;;14.32;2.08;;;;;;;-149.78;100.00;50428.41;5055062;28;20070;-63
2022/02/17 00:12:36;;;;;;;10.52;2.38;;;;;;;-149.78;100.00;50426.47;5054760;28;20029;-62
2022/02/17 00:15:01;;;;;;;24.13;3.35;;;;;;;-149.78;100.00;50436.25;5056497;28;20029;-62
2022/02/17 00:17:27;;;;;;;11.95;2.15;;;;;;;-149.78;100.00;50440.16;5075153;28;20055;-63
2022/02/17 00:19:55;;;;;;;11.88;2.50;;;;;;;-149.78;100.00;50479.28;5063014;28;20072;-63
2022/02/17 00:23:06;;;;;;;15.55;2.38;;;;;;;-149.78;100.00;50461.66;5054891;28;20036;-63
2022/02/17 00:25:38;;;;;;;13.88;3.13;;;;;;;-149.78;100.00;50465.56;4992160;28;20022;-62
2022/02/17 00:28:17;;;;;;;24.85;2.55;;;;;;;-149.78;100.00;50436.25;4992858;28;20108;-63
2022/02/17 00:31:05;;;;;;;18.27;2.38;;;;;;;-149.78;100.00;50451.88;4992638;28;20486;-63
2022/02/17 00:33:32;;;;;;;13.65;3.55;;;;;;;-149.78;100.00;50459.72;4986041;28;20050;-66
2022/02/17 00:36:16;;;;;;;8.18;2.10;;;;;;;-149.78;100.00;50467.53;4992980;28;20039;-66
2022/02/17 00:38:42;;;;;;;14.18;2.28;;;;;;;-149.78;100.00;50467.53;4992885;28;20049;-63
2022/02/17 00:41:07;;;;;;;10.65;1.88;;;;;;;-149.78;100.00;50463.63;5039547;28;20045;-63
2022/02/17 00:43:42;;;;;;;15.30;2.30;;;;;;;-149.78;100.00;50440.16;5054438;28;20112;-63
2022/02/17 00:46:08;;;;;;;11.57;2.15;;;;;;;-149.78;100.00;50447.97;5054254;28;20037;-63
2022/02/17 00:48:51;;;;;;;11.80;1.85;;;;;;;-149.78;100.00;50479.28;5054289;28;20056;-65
2022/02/17 00:51:39;;;;;;;11.93;1.70;;;;;;;-149.78;100.00;50463.63;5053506;28;20068;-65
2022/02/17 00:54:04;;;;;;;16.65;2.53;;;;;;;-149.78;100.00;50491.00;5054020;28;20048;-66
2022/02/17 00:56:30;;;;;;;15.95;1.95;;;;;;;-149.78;100.00;50440.16;5053907;28;20037;-66
2022/02/17 00:58:59;;;;;;;14.77;1.85;;;;;;;-149.78;100.00;50483.19;5053967;28;20415;-66
2022/02/17 01:01:24;;;;;;;11.48;1.70;;;;;;;-149.78;100.00;50475.34;5054413;28;20036;-65
2022/02/17 01:03:50;;;;;;;7.93;1.60;;;;;;;-149.78;100.00;50467.53;5053976;28;20036;-65
2022/02/17 01:06:21;;;;;;;10.23;1.77;;;;;;;-149.78;100.00;50426.47;5053946;28;20123;-66
2022/02/17 01:08:47;;;;;;;11.43;1.95;;;;;;;-149.78;100.00;50477.31;5053701;28;20033;-66
2022/02/17 01:11:21;;;;;;;10.93;1.70;;;;;;;-149.78;100.00;50440.16;5052799;28;20036;-65
2022/02/17 01:13:56;;;;;;;6.45;1.35;;;;;;;-149.78;100.00;50496.88;5053689;28;20052;-65
2022/02/17 01:16:21;;;;;;;6.88;1.67;;;;;;;-149.78;100.00;50428.41;5052565;28;20083;-66
2022/02/17 01:18:47;;;;;;;10.00;1.80;;;;;;;-149.78;100.00;50463.63;5053743;28;20777;-66
2022/02/17 01:21:19;;;;;;;23.00;3.03;;;;;;;-149.78;100.00;50471.44;5053854;28;20432;-65
2022/02/17 01:32:23;;;;;;;9.93;1.80;;;;;;;-149.78;100.00;50408.84;4865619;29;20049;-73
2022/02/17 01:35:08;;;;;;;15.93;1.60;;;;;;;-149.78;100.00;50455.81;4862810;29;20393;-72
2022/02/17 01:37:46;;;;;;;10.88;1.52;;;;;;;-149.78;100.00;50434.28;4868627;29;20377;-72
2022/02/17 01:40:13;;;;;;;19.98;2.80;;;;;;;-149.78;100.00;50447.97;4866998;29;20048;-73
2022/02/17 01:42:57;;;;;;;12.02;2.08;;;;;;;-149.78;100.00;50432.31;4879377;29;20025;-73
2022/02/17 01:45:22;;;;;;;12.43;1.88;;;;;;;-149.78;100.00;50436.25;4863284;29;20037;-72
2022/02/17 01:47:51;;;;;;;12.13;1.33;;;;;;;-149.78;100.00;50428.41;4849724;29;20029;-72
2022/02/17 01:50:17;;;;;;;12.43;2.53;;;;;;;-149.78;100.00;50455.81;4863622;29;20040;-73
2022/02/17 01:52:48;;;;;;;11.13;1.92;;;;;;;-149.78;100.00;50463.63;4879759;29;20041;-73
2022/02/17 11:12:22;;;;;;;8.85;1.50;;;;;;;-149.78;100.00;50436.25;4980349;24;20403;-72
2022/02/17 11:14:50;;;;;;;5.93;1.55;;;;;;;-149.78;100.00;50399.09;4739871;30;20125;-70
2022/02/17 11:17:15;;;;;;;14.60;1.80;;;;;;;-149.78;100.00;50420.59;4755666;30;20654;-69
2022/02/17 11:19:41;;;;;;;12.25;1.67;;;;;;;-149.78;100.00;50373.66;4753333;30;20067;-69
2022/02/17 11:22:11;;;;;;;13.30;2.00;;;;;;;-149.78;100.00;50393.22;4760781;30;20380;-70
2022/02/17 11:24:47;;;;;;;12.65;1.80;;;;;;;-149.78;100.00;50397.13;4764164;30;20078;-70
2022/02/17 11:27:14;;;;;;;8.73;1.45;;;;;;;-149.78;100.00;50401.03;4767576;30;20443;-69
2022/02/17 11:29:41;;;;;;;15.32;1.92;;;;;;;-149.78;100.00;50440.16;4765625;29;20042;-69
2022/02/17 11:32:13;;;;;;;11.95;1.88;;;;;;;-149.78;100.00;50393.22;4763358;30;20048;-69
2022/02/17 11:34:41;;;;;;;15.95;2.22;;;;;;;-149.78;100.00;50428.41;4763636;30;20063;-71
2022/02/17 11:37:22;;;;;;;10.18;1.55;;;;;;;-149.78;100.00;50404.94;4744487;30;20738;-69
2022/02/17 11:40:18;;;;;;;11.85;1.75;;;;;;;-149.78;100.00;50432.31;4765985;30;20062;-69
2022/02/17 11:42:47;;;;;;;9.23;1.92;;;;;;;-149.78;100.00;50422.56;4769678;30;20048;-70
2022/02/17 11:45:23;;;;;;;6.53;1.42;;;;;;;-149.78;100.00;50412.78;4758316;30;20576;-68
2022/02/17 11:47:57;;;;;;;12.82;1.90;;;;;;;-149.78;100.00;50401.03;4771711;30;20472;-69
2022/02/17 11:50:29;;;;;;;13.43;2.35;;;;;;;-149.78;100.00;50436.25;4769215;30;20035;-69
2022/02/17 11:53:21;;;;;;;;;;;;;;;-149.78;100.00;50389.31;4772515;29;20066;-69
2022/02/17 11:55:47;;;;;;;13.82;1.80;;;;;;;-149.78;100.00;50393.22;4753144;29;20385;-70
2022/02/17 11:58:39;;;;;;;14.18;2.03;;;;;;;-149.78;100.00;50418.63;4756840;30;20036;-70
2022/02/17 12:01:26;;;;;;;9.80;1.83;;;;;;;-149.78;100.00;50455.81;4755435;30;20529;-70
2022/02/17 12:04:06;;;;;;;4.15;1.13;;;;;;;-149.78;100.00;50432.31;4765568;30;20043;-69
2022/02/17 12:06:41;;;;;;;4.95;1.02;;;;;;;-149.78;100.00;50432.31;4759888;30;20097;-70
2022/02/17 12:09:35;;;;;;;7.57;1.60;;;;;;;-149.78;100.00;50416.69;4758343;30;20063;-70
2022/02/17 12:12:06;;;;;;;11.50;1.67;;;;;;;-149.78;100.00;50420.59;4777252;29;20138;-69
2022/02/17 12:14:33;;;;;;;10.55;2.20;;;;;;;-149.78;100.00;50420.59;4776623;29;20039;-70
2022/02/17 12:17:02;;;;;;;11.57;1.58;;;;;;;-149.78;100.00;50401.03;4776594;29;20038;-70
2022/02/17 12:19:33;;;;;;;13.90;1.60;;;;;;;-149.78;100.00;50412.78;4788337;29;20051;-69
2022/02/17 12:22:09;;;;;;;12.48;1.73;;;;;;;-149.78;100.00;50432.31;4788210;29;20115;-69
2022/02/17 12:24:37;;;;;;;18.55;1.92;;;;;;;-149.78;100.00;50424.50;4787199;29;20035;-70
2022/02/17 12:27:04;;;;;;;12.10;1.95;;;;;;;-149.78;100.00;50428.41;4780170;29;20563;-70
2022/02/17 12:29:36;;;;;;;16.08;1.90;;;;;;;-149.78;100.00;50416.69;4780678;29;20031;-70
2022/02/17 12:32:04;;;;;;;13.50;2.10;;;;;;;-149.78;100.00;50412.78;4777033;29;20104;-70
2022/02/17 12:34:31;;;;;;;8.07;2.40;;;;;;;-149.78;100.00;50440.16;4788685;29;20122;-69
2022/02/17 12:36:57;;;;;;;11.00;2.50;;;;;;;-149.78;100.00;50416.69;4779715;29;20418;-70
2022/02/17 12:39:31;;;;;;;12.15;2.10;;;;;;;-149.78;100.00;50379.53;4774024;29;20032;-70
2022/02/17 12:42:02;;;;;;;15.88;2.15;;;;;;;-149.78;100.00;50369.75;4771408;30;20104;-71
2022/02/17 12:44:30;;;;;;;6.90;1.73;;;;;;;-149.78;100.00;50401.03;4793076;29;20057;-70
2022/02/17 12:46:57;;;;;;;14.15;2.22;;;;;;;-149.78;100.00;50404.94;4807045;29;20041;-70
2022/02/17 12:49:24;;;;;;;17.02;2.50;;;;;;;-149.78;100.00;50404.94;4786035;29;20051;-70
2022/02/17 12:51:49;;;;;;;17.80;2.88;;;;;;;-149.78;100.00;50397.13;4791136;29;20050;-70
2022/02/17 12:54:15;;;;;;;12.48;2.33;;;;;;;-149.78;100.00;50420.59;4790188;29;20039;-70
2022/02/17 12:56:41;;;;;;;12.15;1.75;;;;;;;-149.78;100.00;50406.91;4794567;29;20049;-70
2022/02/17 12:59:17;;;;;;;20.02;2.35;;;;;;;-149.78;100.00;50403.00;4787056;29;20472;-70
2022/02/17 13:01:47;;;;;;;12.48;2.63;;;;;;;-149.78;100.00;50389.31;4782360;29;20044;-70
2022/02/17 13:04:16;;;;;;;7.63;1.60;;;;;;;-149.78;100.00;50404.94;4750713;30;20487;-71
2022/02/17 13:06:42;;;;;;;8.23;1.70;;;;;;;-149.78;100.00;50440.16;4782675;29;20449;-70
2022/02/17 13:09:15;;;;;;;12.63;1.83;;;;;;;-149.78;100.00;50416.69;4780804;29;20043;-70
2022/02/17 13:11:52;;;;;;;10.93;1.58;;;;;;;-149.78;100.00;50391.25;4784328;29;20503;-71
2022/02/17 13:14:19;;;;;;;16.35;1.60;;;;;;;-149.78;100.00;50401.03;4792809;29;20489;-70
2022/02/17 13:16:45;;;;;;;9.73;1.67;;;;;;;-149.78;100.00;50438.19;4781611;29;20042;-71
2022/02/17 13:19:38;;;;;;;15.60;2.22;;;;;;;-149.78;100.00;50401.03;4806362;29;20038;-71
2022/02/17 13:22:08;;;;;;;14.95;2.42;;;;;;;-149.78;100.00;50408.84;4794029;29;20125;-71
2022/02/17 13:24:34;;;;;;;11.35;2.20;;;;;;;-149.78;100.00;50408.84;4787053;29;20051;-71
2022/02/17 13:27:10;;;;;;;11.65;1.98;;;;;;;-149.78;100.00;50416.69;4777378;29;20361;-71
2022/02/17 13:30:00;;;;;;;10.00;1.48;;;;;;;-149.78;100.00;50365.84;4758228;30;20031;-72
2022/02/17 13:32:28;;;;;;;7.35;1.63;;;;;;;-149.78;100.00;50381.47;4779082;30;20070;-70
2022/02/17 13:35:07;;;;;;;12.40;1.95;;;;;;;-149.78;100.00;50389.31;4776197;30;20096;-72
2022/02/17 13:37:50;;;;;;;11.55;1.73;;;;;;;-149.78;100.00;50354.09;4775336;30;20046;-71
2022/02/17 13:40:17;;;;;;;11.90;1.88;;;;;;;-149.78;100.00;50397.13;4778082;30;20038;-71
2022/02/17 13:42:59;;;;;;;11.45;1.60;;;;;;;-149.78;92.24;50383.44;4786808;29;20452;-72
2022/02/17 13:45:31;;;;;;;9.68;1.30;;;;;;;-149.78;91.09;50399.09;4786837;30;20043;-70
2022/02/17 13:47:57;;;;;;;7.50;1.05;;;;;;;-149.78;91.57;50358.00;4785264;30;20046;-71
2022/02/17 13:50:25;;;;;;;4.20;1.40;;;;;;;-149.78;86.47;50385.38;4782521;29;20031;-71
2022/02/17 13:53:04;;;;;;;3.38;1.10;;;;;;;-149.78;89.43;50354.09;4779613;30;20625;-70
2022/02/17 13:55:34;;;;;;;4.95;1.15;;;;;;;-149.78;93.90;50395.16;4787436;30;20506;-71
2022/02/17 13:58:02;;;;;;;7.78;1.40;;;;;;;-149.78;92.15;50375.63;4784773;29;20134;-70
2022/02/17 14:00:32;;;;;;;3.83;1.13;;;;;;;-149.78;93.58;50363.88;4770087;30;20499;-70
2022/02/17 14:03:25;;;;;;;6.57;1.10;;;;;;;-149.78;94.80;50424.50;4770179;30;20040;-70
2022/02/17 14:05:52;;;;;;;2.60;1.15;;;;;;;-149.78;95.69;50381.47;4773049;30;20047;-69
2022/02/17 14:08:19;;;;;;;3.05;0.93;;;;;;;-149.78;94.04;50401.03;4760539;30;20043;-69
2022/02/17 14:10:45;;;;;;;4.45;1.00;;;;;;;-149.78;92.41;50397.13;4777964;29;20134;-70
2022/02/17 14:13:11;;;;;;;3.22;0.90;;;;;;;-149.78;90.42;50408.84;4779882;29;20086;-70
2022/02/17 14:15:37;;;;;;;5.72;0.90;;;;;;;-149.78;93.82;50428.41;4779485;29;20118;-70
2022/02/17 14:18:03;;;;;;;4.95;1.20;;;;;;;-149.78;96.98;50403.00;4779270;29;20493;-70
2022/02/17 14:20:29;;;;;;;5.82;1.58;;;;;;;-149.78;100.00;50352.16;4770979;30;20044;-70
2022/02/17 14:22:54;;;;;;;7.75;1.30;;;;;;;-149.78;100.00;50408.84;4773435;30;20035;-70
2022/02/17 14:25:20;;;;;;;8.60;1.05;;;;;;;-149.78;100.00;50424.50;4782925;30;20035;-71
2022/02/17 14:27:45;;;;;;;3.83;1.25;;;;;;;-149.78;100.00;50397.13;4787030;29;20117;-70
2022/02/17 14:30:11;;;;;;;4.25;0.90;;;;;;;-149.78;100.00;50416.69;4785597;29;20039;-70
2022/02/17 14:32:37;;;;;;;10.25;1.50;;;;;;;-149.78;100.00;50404.94;4777822;30;20122;-70
2022/02/17 14:35:12;;;;;;;7.88;1.13;;;;;;;-149.78;100.00;50410.81;4762049;30;20042;-69
2022/02/17 14:37:47;;;;;;;7.43;1.20;;;;;;;-149.78;100.00;50404.94;4761973;30;20805;-70
2022/02/17 14:40:15;;;;;;;8.88;1.23;;;;;;;-149.78;100.00;50440.16;4773536;30;20381;-69
2022/02/17 14:42:41;;;;;;;7.47;0.98;;;;;;;-149.78;100.00;50459.72;4779524;30;20035;-69
2022/02/17 14:45:08;;;;;;;10.52;1.48;;;;;;;-149.78;100.00;50416.69;4781159;29;20044;-69
2022/02/17 14:47:37;;;;;;;8.25;1.88;;;;;;;-149.78;100.00;50408.84;4784750;30;20480;-70
2022/02/17 14:50:07;;;;;;;5.30;1.38;;;;;;;-149.78;100.00;50436.25;4781511;30;20058;-70
2022/02/17 14:52:33;;;;;;;6.88;1.38;;;;;;;-149.78;100.00;50399.09;4773063;30;20119;-70
2022/02/17 14:54:59;;;;;;;10.77;1.30;;;;;;;-149.78;100.00;50440.16;4773308;30;20259;-70
2022/02/17 14:57:24;;;;;;;6.03;1.75;;;;;;;-149.78;100.00;50432.31;4757122;30;20044;-70
2022/02/17 14:59:50;;;;;;;4.20;1.30;;;;;;;-149.78;100.00;50412.78;4773116;30;20044;-70
2022/02/17 15:02:15;;;;;;;6.35;1.67;;;;;;;-149.78;100.00;50424.50;4773099;30;20052;-70
2022/02/17 15:04:41;;;;;;;10.10;1.73;;;;;;;-149.78;100.00;50506.66;4757150;30;20043;-70
2022/02/17 15:07:07;;;;;;;11.13;1.98;;;;;;;-149.78;100.00;50424.50;4756913;30;20043;-69
2022/02/17 15:09:34;;;;;;;10.10;1.70;;;;;;;-149.78;100.00;50424.50;4771715;30;20040;-70
2022/02/17 15:12:00;;;;;;;9.18;2.03;;;;;;;-149.78;100.00;50436.25;4772565;30;20067;-70
2022/02/17 15:14:26;;;;;;;11.13;1.55;;;;;;;-149.78;100.00;50408.84;4773018;30;20102;-70
2022/02/17 15:16:51;;;;;;;5.38;1.98;;;;;;;-149.78;100.00;50432.31;4765937;30;20031;-70
2022/02/17 15:19:17;;;;;;;7.43;1.55;;;;;;;-149.78;100.00;50408.84;4778288;30;20379;-69
2022/02/17 15:21:43;;;;;;;6.10;1.48;;;;;;;-149.78;100.00;50420.59;4776656;30;20066;-69
2022/02/17 15:24:09;;;;;;;8.68;1.90;;;;;;;-149.78;100.00;50401.03;4777060;30;20488;-69
2022/02/17 15:26:34;;;;;;;3.47;1.35;;;;;;;-149.78;100.00;50440.16;4780022;29;20112;-69
2022/02/17 15:29:00;;;;;;;7.57;2.13;;;;;;;-149.78;100.00;50420.59;4790317;29;20500;-70
2022/02/17 15:31:26;;;;;;;5.07;1.73;;;;;;;-149.78;100.00;50449.94;4788926;29;20399;-69
2022/02/17 15:33:51;;;;;;;4.40;1.67;;;;;;;-149.78;100.00;50428.41;4791557;29;20039;-69
2022/02/17 15:36:17;;;;;;;9.57;2.13;;;;;;;-149.78;100.00;50404.94;4788913;29;20050;-70
2022/02/17 15:38:43;;;;;;;8.43;2.20;;;;;;;-149.78;100.00;50432.31;4789927;30;20047;-69
2022/02/17 15:41:09;;;;;;;4.00;1.40;;;;;;;-149.78;100.00;50447.97;4790032;30;20045;-70
2022/02/17 15:43:35;;;;;;;4.95;2.13;;;;;;;-149.78;100.00;50440.16;4790382;30;20480;-70
2022/02/17 15:46:01;;;;;;;4.97;1.80;;;;;;;-149.78;100.00;50459.72;4790102;30;20039;-69
2022/02/17 15:48:28;;;;;;;5.63;1.42;;;;;;;-149.78;100.00;50436.25;4789730;30;20050;-69
2022/02/17 15:50:54;;;;;;;4.60;1.20;;;;;;;-149.78;100.00;50412.78;4789067;30;20047;-69
2022/02/17 15:53:20;;;;;;;2.90;1.20;;;;;;;-149.78;100.00;50389.31;4790181;29;20035;-69
2022/02/17 15:55:45;;;;;;;3.17;1.05;;;;;;;-149.78;100.00;50461.66;4791486;29;20476;-69
2022/02/17 15:58:11;;;;;;;3.88;0.82;;;;;;;-149.78;100.00;50451.88;4786143;29;20032;-69
2022/02/17 16:00:37;;;;;;;1.95;0.90;;;;;;;-149.78;100.00;50455.81;4781920;29;20680;-69
2022/02/17 16:03:03;;;;;;;0.93;0.68;;;;;;;-149.78;100.00;50430.38;4782680;29;20053;-69
2022/02/17 16:05:30;;;;;;;1.08;0.50;;;;;;;-149.78;100.00;50440.16;4777035;29;20043;-69
2022/02/17 16:07:56;;;;;;;1.45;0.70;;;;;;;-149.78;100.00;50406.91;4779082;29;20188;-69
2022/02/17 16:10:21;;;;;;;2.17;1.13;;;;;;;-149.78;100.00;50473.41;4781335;30;20092;-69
2022/02/17 16:12:47;;;;;;;4.35;1.60;;;;;;;-149.78;100.00;50463.63;4782366;29;20060;-69
2022/02/17 16:15:13;;;;;;;4.00;1.42;;;;;;;-149.78;100.00;50455.81;4780400;29;20129;-69
2022/02/17 16:17:40;;;;;;;5.25;1.80;;;;;;;-149.78;100.00;50465.56;4762745;29;20059;-69
2022/02/17 16:20:10;;;;;;;4.20;1.70;;;;;;;-149.78;100.00;50432.31;4788487;29;20043;-68
2022/02/17 16:22:38;;;;;;;4.22;2.17;;;;;;;-149.78;100.00;50463.63;4786216;30;20121;-69
2022/02/17 16:25:03;;;;;;;5.70;2.13;;;;;;;-149.78;100.00;50487.09;4780632;29;20044;-69
2022/02/17 16:27:29;;;;;;;6.13;2.28;;;;;;;-149.78;100.00;50449.94;4784806;29;20031;-69
2022/02/17 16:29:55;;;;;;;4.95;2.22;;;;;;;-149.78;100.00;50479.28;4758681;29;20045;-69
2022/02/17 16:32:21;;;;;;;6.00;1.92;;;;;;;-149.78;100.00;50447.97;4801380;29;20051;-69
2022/02/17 16:34:47;;;;;;;7.88;2.63;;;;;;;-149.78;100.00;50494.91;4787416;29;20047;-69
2022/02/17 16:37:12;;;;;;;6.70;2.60;;;;;;;-149.78;100.00;50473.41;4775386;30;20050;-69
2022/02/17 16:39:42;;;;;;;7.28;3.35;;;;;;;-149.78;100.00;50489.03;4778119;30;20050;-69
2022/02/17 16:42:07;;;;;;;4.85;3.05;;;;;;;-149.78;100.00;50436.25;4777290;29;20039;-69
2022/02/17 16:44:33;;;;;;;8.63;3.00;;;;;;;-149.78;100.00;50491.00;4780480;29;20035;-69
2022/02/17 16:47:01;;;;;;;12.60;3.85;;;;;;;-149.78;100.00;50404.94;4777466;30;20035;-70
2022/02/17 16:49:27;;;;;;;8.00;3.50;;;;;;;-149.78;100.00;50487.09;4782684;29;20546;-69
2022/02/17 16:51:53;;;;;;;9.15;3.38;;;;;;;-149.78;100.00;50463.63;4776577;30;20118;-69
2022/02/17 16:54:19;;;;;;;13.48;4.63;;;;;;;-149.78;100.00;50483.19;4765205;30;20035;-71
2022/02/17 16:56:46;;;;;;;10.15;5.45;;;;;;;-149.78;100.00;50463.63;4775322;29;20510;-70
2022/02/17 16:59:12;;;;;;;17.90;6.18;;;;;;;-149.78;100.00;50463.63;4774049;30;20031;-70
2022/02/17 17:01:39;;;;;;;12.27;6.43;;;;;;;-149.78;100.00;50483.19;4773826;30;20391;-70
2022/02/17 17:04:04;;;;;;;21.20;5.47;;;;;;;-149.78;100.00;50453.84;4777732;29;20054;-70
2022/02/17 17:06:31;;;;;;;11.90;5.38;;;;;;;-149.78;100.00;50434.28;4779750;29;20476;-71
2022/02/17 17:08:57;;;;;;;14.70;5.40;;;;;;;-149.78;100.00;50451.88;4789282;29;20401;-71
2022/02/17 17:11:24;;;;;;;11.82;5.25;;;;;;;-149.78;100.00;50463.63;4769744;30;20046;-70
2022/02/17 17:13:51;;;;;;;20.08;5.22;;;;;;;-149.78;100.00;50436.25;4780638;29;20066;-70
2022/02/17 17:16:17;;;;;;;11.70;5.13;;;;;;;-149.78;100.00;50467.53;4778120;30;20408;-69
2022/02/17 17:18:43;;;;;;;15.20;5.00;;;;;;;-149.78;100.00;50453.84;4786764;29;20043;-69
2022/02/17 17:21:09;;;;;;;13.65;4.85;;;;;;;-149.78;100.00;50440.16;4771790;30;20038;-70
2022/02/17 17:23:35;;;;;;;11.82;4.85;;;;;;;-149.78;100.00;50483.19;4775127;29;20114;-70
2022/02/17 17:26:01;;;;;;;15.02;5.28;;;;;;;-149.78;100.00;50483.19;4777202;30;20527;-70
2022/02/17 17:28:28;;;;;;;13.45;5.07;;;;;;;-149.78;100.00;50424.50;4775695;29;20036;-70
2022/02/17 17:30:54;;;;;;;15.88;5.38;;;;;;;-149.78;100.00;50440.16;4774958;29;20040;-70
2022/02/17 17:33:21;;;;;;;17.63;6.05;;;;;;;-149.78;100.00;50440.16;4779168;30;20031;-70
2022/02/17 17:35:49;;;;;;;17.27;4.70;;;;;;;-149.78;100.00;50485.13;4772693;29;20112;-70
2022/02/17 17:38:16;;;;;;;13.38;4.47;;;;;;;-149.78;100.00;50471.44;4760461;30;20050;-70
2022/02/17 17:40:42;;;;;;;15.80;4.65;;;;;;;-149.78;100.00;50465.56;4774315;29;20121;-70
2022/02/17 17:43:08;;;;;;;13.65;4.90;;;;;;;-149.78;100.00;50475.34;4775634;29;20050;-70
2022/02/17 17:45:38;;;;;;;10.20;4.97;;;;;;;-149.78;100.00;50459.72;4777800;29;20503;-70
2022/02/17 17:48:10;;;;;;;11.73;4.13;;;;;;;-149.78;100.00;50449.94;4781213;29;20035;-70
2022/02/17 17:50:38;;;;;;;10.55;4.45;;;;;;;-149.78;100.00;50455.81;4762040;30;20059;-70
2022/02/17 17:53:08;;;;;;;14.98;4.30;;;;;;;-149.78;100.00;50487.09;4784488;29;20039;-70
2022/02/17 17:55:39;;;;;;;9.00;3.90;;;;;;;-149.78;100.00;50471.44;4777338;30;20095;-70
2022/02/17 17:58:15;;;;;;;12.18;3.85;;;;;;;-149.78;100.00;50459.72;4775923;29;20143;-69
2022/02/17 18:00:43;;;;;;;12.73;3.88;;;;;;;-149.78;100.00;50459.72;4774655;30;20031;-69
2022/02/17 18:03:10;;;;;;;7.68;3.60;;;;;;;-149.78;100.00;50432.31;4758947;30;20044;-70
2022/02/17 18:05:37;;;;;;;10.38;3.70;;;;;;;-149.78;100.00;50436.25;4787653;29;20044;-70
2022/02/17 18:08:03;;;;;;;13.20;4.55;;;;;;;-149.78;100.00;50467.53;4788249;29;20035;-69
2022/02/17 18:10:30;;;;;;;13.73;5.07;;;;;;;-149.78;100.00;50432.31;4787873;30;20496;-70
2022/02/17 18:12:55;;;;;;;11.65;5.07;;;;;;;-149.78;100.00;50467.53;4771743;30;20065;-70
2022/02/17 18:15:21;;;;;;;13.52;5.70;;;;;;;-149.78;100.00;50428.41;4787924;29;20064;-71
2022/02/17 18:17:47;;;;;;;16.08;6.15;;;;;;;-149.78;100.00;50420.59;4779506;29;20440;-70
2022/02/17 18:20:15;;;;;;;12.18;6.43;;;;;;;-149.78;100.00;50467.53;4780370;29;20050;-69
2022/02/17 18:22:41;;;;;;;9.20;4.63;;;;;;;-149.78;100.00;50471.44;4775939;29;20121;-70
2022/02/17 18:25:07;;;;;;;8.85;4.43;;;;;;;-149.78;100.00;50471.44;4773525;30;20069;-70
2022/02/17 18:27:34;;;;;;;7.15;3.33;;;;;;;-149.78;100.00;50471.44;4756728;30;20032;-70
2022/02/17 18:30:02;;;;;;;4.90;2.80;;;;;;;-149.78;100.00;50459.72;4778003;29;20046;-69
2022/02/17 18:32:28;;;;;;;8.35;3.28;;;;;;;-149.78;100.00;50467.53;4773593;30;20046;-70
2022/02/17 18:34:54;;;;;;;7.90;3.15;;;;;;;-149.78;100.00;50479.28;4788658;30;20043;-70
2022/02/17 18:37:19;;;;;;;5.13;2.42;;;;;;;-149.78;100.00;50447.97;4776262;30;20086;-69
2022/02/17 18:39:46;;;;;;;8.30;2.63;;;;;;;-149.78;100.00;50434.28;4791555;30;20050;-69
2022/02/17 18:42:12;;;;;;;11.18;2.67;;;;;;;-149.78;100.00;50479.28;4791362;30;20490;-70
2022/02/17 18:47:22;;;;;;;6.13;2.53;;;;;;;-149.78;100.00;50483.19;4785332;29;20042;-70
2022/02/17 18:49:49;;;;;;;8.13;2.50;;;;;;;-149.78;100.00;50440.16;4780338;30;20039;-69
2022/02/17 18:52:14;;;;;;;12.93;3.20;;;;;;;-149.78;100.00;50467.53;4781826;29;20040;-69
2022/02/17 18:54:41;;;;;;;7.15;2.35;;;;;;;-149.78;100.00;50432.31;4779518;29;20378;-69
2022/02/17 18:57:09;;;;;;;6.80;2.40;;;;;;;-149.78;100.00;50440.16;4783293;30;20553;-69
2022/02/17 18:59:34;;;;;;;6.80;2.45;;;;;;;-149.78;100.00;50428.41;4781978;30;20039;-70
2022/02/17 19:02:00;;;;;;;6.63;2.58;;;;;;;-149.78;100.00;50481.22;4785053;29;20044;-70
2022/02/17 19:04:26;;;;;;;6.35;2.53;;;;;;;-149.78;100.00;50463.63;4782791;30;20488;-70
2022/02/17 19:06:52;;;;;;;7.13;2.70;;;;;;;-149.78;100.00;50459.72;4788014;30;20062;-70
2022/02/17 19:09:18;;;;;;;7.13;2.92;;;;;;;-149.78;100.00;50440.16;4785692;30;20042;-69
2022/02/17 19:11:44;;;;;;;9.05;3.40;;;;;;;-149.78;100.00;50451.88;4778718;30;20051;-70
2022/02/17 19:14:10;;;;;;;9.43;3.38;;;;;;;-149.78;100.00;50424.50;4779436;30;20047;-70
2022/02/17 19:16:36;;;;;;;9.75;3.50;;;;;;;-149.78;100.00;50463.63;4765583;30;20036;-70
2022/02/17 19:19:07;;;;;;;19.15;4.63;;;;;;;-149.78;100.00;50489.03;4778653;30;20048;-70
2022/02/17 19:21:33;;;;;;;8.65;3.60;;;;;;;-149.78;100.00;50498.81;4780943;30;20114;-70
2022/02/17 19:23:59;;;;;;;12.43;3.85;;;;;;;-149.78;100.00;50463.63;4782647;29;20118;-69
2022/02/17 19:26:25;;;;;;;14.82;4.93;;;;;;;-149.78;100.00;50444.06;4785612;30;20437;-70
2022/02/17 19:28:51;;;;;;;10.27;3.90;;;;;;;-149.78;100.00;50465.56;4781570;30;20044;-69
2022/02/17 19:31:17;;;;;;;8.02;3.85;;;;;;;-149.78;100.00;50473.41;4772146;30;20046;-70
2022/02/17 19:33:42;;;;;;;10.23;3.50;;;;;;;-149.78;100.00;50461.66;4780239;30;20039;-69
2022/02/17 19:36:08;;;;;;;11.48;3.08;;;;;;;-149.78;100.00;50487.09;4783876;30;20046;-70
2022/02/17 19:38:34;;;;;;;5.90;2.20;;;;;;;-149.78;100.00;50440.16;4785139;30;20070;-70
2022/02/17 19:41:00;;;;;;;7.85;2.58;;;;;;;-149.78;100.00;50463.63;4789946;30;20172;-69
2022/02/17 19:43:26;;;;;;;5.07;2.72;;;;;;;-149.78;100.00;50469.50;4790151;30;20134;-70
2022/02/17 19:45:53;;;;;;;9.60;3.20;;;;;;;-149.78;100.00;50447.97;4790205;30;20134;-70
2022/02/17 19:48:22;;;;;;;14.45;3.15;;;;;;;-149.78;100.00;50416.69;4789714;30;20463;-69
2022/02/17 19:50:48;;;;;;;4.68;2.28;;;;;;;-149.78;100.00;50426.47;4782323;30;20046;-69
2022/02/17 19:53:14;;;;;;;2.97;1.33;;;;;;;-149.78;100.00;50459.72;4776792;29;20046;-70
2022/02/17 19:55:43;;;;;;;6.07;2.28;;;;;;;-149.78;100.00;50453.84;4778937;29;20488;-69
2022/02/17 19:58:09;;;;;;;9.35;2.10;;;;;;;-149.78;100.00;50471.44;4770940;29;20139;-69
2022/02/17 20:00:36;;;;;;;5.55;1.60;;;;;;;-149.78;100.00;50440.16;4786222;29;20456;-69
2022/02/17 20:03:04;;;;;;;3.75;1.50;;;;;;;-149.78;100.00;50491.00;4789962;29;20042;-69
2022/02/17 20:05:30;;;;;;;5.07;1.73;;;;;;;-149.78;100.00;50436.25;4780860;30;20035;-69
2022/02/17 20:07:56;;;;;;;10.18;2.08;;;;;;;-149.78;100.00;50483.19;4771905;30;20043;-70
2022/02/17 20:10:22;;;;;;;8.95;2.20;;;;;;;-149.78;100.00;50451.88;4770816;30;20039;-69
2022/02/17 20:12:49;;;;;;;7.20;2.30;;;;;;;-149.78;100.00;50467.53;4757817;30;20056;-69
2022/02/17 20:15:16;;;;;;;9.25;3.10;;;;;;;-149.78;100.00;50459.72;4738002;30;20150;-69
2022/02/17 20:17:43;;;;;;;4.00;1.83;;;;;;;-149.78;100.00;50481.22;4765957;30;20036;-70
2022/02/17 20:20:10;;;;;;;9.32;3.80;;;;;;;-149.78;100.00;50467.53;4742368;30;20043;-71
2022/02/17 20:22:38;;;;;;;7.38;2.30;;;;;;;-149.78;100.00;50447.97;4748662;30;20047;-71
2022/02/17 20:25:06;;;;;;;8.13;2.30;;;;;;;-149.78;100.00;50436.25;4727506;30;20153;-70
2022/02/17 20:27:32;;;;;;;5.13;1.77;;;;;;;-149.78;100.00;50467.53;4757006;30;20040;-70
2022/02/17 20:29:58;;;;;;;11.75;3.95;;;;;;;-149.78;100.00;50434.28;4757403;30;20443;-70
2022/02/17 20:32:24;;;;;;;6.65;2.22;;;;;;;-149.78;100.00;50447.97;4756250;30;20123;-70
2022/02/17 20:34:50;;;;;;;5.40;2.13;;;;;;;-149.78;100.00;50471.44;4742479;30;20058;-70
2022/02/17 20:37:16;;;;;;;5.60;2.20;;;;;;;-149.78;100.00;50444.06;4763866;30;20131;-70
2022/02/17 20:39:42;;;;;;;8.13;2.22;;;;;;;-149.78;100.00;50467.53;4763887;30;20048;-68
2022/02/17 20:42:10;;;;;;;8.80;2.55;;;;;;;-149.78;100.00;50459.72;4761967;30;20053;-69